sensor_id;sensor_type;location;lat;lon;timestamp;pressure;altitude;pressure_sealevel;temperature;humidity
48624;BME280;34422;45.802;16.114;2023-04-27T00:00:50;100482.72;;;10.51;89.67
48624;BME280;34422;45.802;16.114;2023-04-27T00:03:17;100509.34;;;10.67;93.93
48624;BME280;34422;45.802;16.114;2023-04-27T00:05:44;100514.75;;;10.67;100.00
48624;BME280;34422;45.802;16.114;2023-04-27T00:08:12;100513.72;;;10.55;100.00
48624;BME280;34422;45.802;16.114;2023-04-27T00:10:38;100521.59;;;10.44;100.00
48624;BME280;34422;45.802;16.114;2023-04-27T00:13:05;100520.34;;;10.40;100.00
48624;BME280;34422;45.802;16.114;2023-04-27T00:15:32;100518.69;;;10.45;100.00
48624;BME280;34422;45.802;16.114;2023-04-27T00:17:59;100512.25;;;10.46;100.00
48624;BME280;34422;45.802;16.114;2023-04-27T00:20:27;100525.56;;;10.48;100.00
48624;BME280;34422;45.802;16.114;2023-04-27T00:22:54;100523.91;;;10.47;100.00
48624;BME280;34422;45.802;16.114;2023-04-27T00:25:21;100521.84;;;10.49;100.00
48624;BME280;34422;45.802;16.114;2023-04-27T00:27:47;100520.34;;;10.40;100.00
48624;BME280;34422;45.802;16.114;2023-04-27T00:30:14;100517.84;;;10.45;100.00
48624;BME280;34422;45.802;16.114;2023-04-27T00:32:41;100520.56;;;10.45;100.00
48624;BME280;34422;45.802;16.114;2023-04-27T00:35:08;100510.97;;;10.29;100.00
48624;BME280;34422;45.802;16.114;2023-04-27T00:37:35;100507.03;;;10.25;100.00
48624;BME280;34422;45.802;16.114;2023-04-27T00:40:06;100517.81;;;10.18;100.00
48624;BME280;34422;45.802;16.114;2023-04-27T00:42:34;100515.88;;;10.06;100.00
48624;BME280;34422;45.802;16.114;2023-04-27T00:45:01;100501.47;;;9.92;100.00
48624;BME280;34422;45.802;16.114;2023-04-27T00:47:29;100484.81;;;9.82;100.00
48624;BME280;34422;45.802;16.114;2023-04-27T00:49:56;100494.78;;;9.88;100.00
48624;BME280;34422;45.802;16.114;2023-04-27T00:52:23;100498.13;;;9.83;100.00
48624;BME280;34422;45.802;16.114;2023-04-27T00:54:50;100504.38;;;9.84;100.00
48624;BME280;34422;45.802;16.114;2023-04-27T00:57:18;100493.13;;;9.80;100.00
48624;BME280;34422;45.802;16.114;2023-04-27T00:59:44;100502.25;;;9.79;100.00
48624;BME280;34422;45.802;16.114;2023-04-27T01:02:11;100502.25;;;9.86;100.00
48624;BME280;34422;45.802;16.114;2023-04-27T01:04:39;100503.53;;;9.90;100.00
48624;BME280;34422;45.802;16.114;2023-04-27T01:07:06;100494.78;;;9.81;100.00
48624;BME280;34422;45.802;16.114;2023-04-27T01:09:33;100485.59;;;9.76;100.00
48624;BME280;34422;45.802;16.114;2023-04-27T01:12:00;100498.97;;;9.84;100.00
48624;BME280;34422;45.802;16.114;2023-04-27T01:14:28;100492.69;;;9.77;100.00
48624;BME280;34422;45.802;16.114;2023-04-27T01:16:54;100501.38;;;9.66;100.00
48624;BME280;34422;45.802;16.114;2023-04-27T01:19:21;100497.97;;;9.57;100.00
48624;BME280;34422;45.802;16.114;2023-04-27T01:21:48;100500.91;;;9.55;100.00
48624;BME280;34422;45.802;16.114;2023-04-27T01:24:15;100507.53;;;9.53;100.00
48624;BME280;34422;45.802;16.114;2023-04-27T01:26:42;100508.38;;;9.53;100.00
48624;BME280;34422;45.802;16.114;2023-04-27T01:29:09;100506.00;;;9.44;100.00
48624;BME280;34422;45.802;16.114;2023-04-27T01:31:36;100506.63;;;9.39;100.00
48624;BME280;34422;45.802;16.114;2023-04-27T01:34:03;100500.41;;;9.39;100.00
48624;BME280;34422;45.802;16.114;2023-04-27T01:36:30;100504.97;;;9.38;100.00
48624;BME280;34422;45.802;16.114;2023-04-27T01:38:57;100512.44;;;9.36;100.00
48624;BME280;34422;45.802;16.114;2023-04-27T01:41:24;100514.47;;;9.34;100.00
48624;BME280;34422;45.802;16.114;2023-04-27T01:43:51;100510.50;;;9.30;100.00
48624;BME280;34422;45.802;16.114;2023-04-27T01:46:18;100507.41;;;9.33;100.00
48624;BME280;34422;45.802;16.114;2023-04-27T01:48:44;100509.09;;;9.34;100.00
48624;BME280;34422;45.802;16.114;2023-04-27T01:51:11;100510.31;;;9.32;100.00
48624;BME280;34422;45.802;16.114;2023-04-27T01:53:40;100511.16;;;9.32;100.00
48624;BME280;34422;45.802;16.114;2023-04-27T01:56:07;100479.88;;;9.10;100.00
48624;BME280;34422;45.802;16.114;2023-04-27T01:58:34;100509.16;;;9.13;100.00
48624;BME280;34422;45.802;16.114;2023-04-27T02:01:01;100502.22;;;9.04;100.00
48624;BME280;34422;45.802;16.114;2023-04-27T02:03:27;100512.94;;;8.90;100.00
48624;BME280;34422;45.802;16.114;2023-04-27T02:05:55;100511.06;;;8.91;100.00
48624;BME280;34422;45.802;16.114;2023-04-27T02:08:23;100497.91;;;8.81;100.00
48624;BME280;34422;45.802;16.114;2023-04-27T02:10:50;100494.94;;;8.70;100.00
48624;BME280;34422;45.802;16.114;2023-04-27T02:13:16;100506.09;;;8.67;100.00
48624;BME280;34422;45.802;16.114;2023-04-27T02:15:43;100497.69;;;8.55;100.00
48624;BME280;34422;45.802;16.114;2023-04-27T02:18:10;100491.81;;;8.45;100.00
48624;BME280;34422;45.802;16.114;2023-04-27T02:20:37;100509.25;;;8.49;100.00
48624;BME280;34422;45.802;16.114;2023-04-27T02:23:05;100505.94;;;8.47;100.00
48624;BME280;34422;45.802;16.114;2023-04-27T02:25:35;100520.50;;;8.52;100.00
48624;BME280;34422;45.802;16.114;2023-04-27T02:28:03;100521.97;;;8.55;100.00
48624;BME280;34422;45.802;16.114;2023-04-27T02:30:30;100523.97;;;8.46;100.00
48624;BME280;34422;45.802;16.114;2023-04-27T02:32:58;100516.31;;;8.50;100.00
48624;BME280;34422;45.802;16.114;2023-04-27T02:35:26;100514.91;;;8.54;100.00
48624;BME280;34422;45.802;16.114;2023-04-27T02:37:52;100524.28;;;8.58;100.00
48624;BME280;34422;45.802;16.114;2023-04-27T02:40:19;100511.19;;;8.55;100.00
48624;BME280;34422;45.802;16.114;2023-04-27T02:42:46;100510.16;;;8.56;100.00
48624;BME280;34422;45.802;16.114;2023-04-27T02:45:13;100508.22;;;8.50;100.00
48624;BME280;34422;45.802;16.114;2023-04-27T02:47:40;100505.03;;;8.40;100.00
48624;BME280;34422;45.802;16.114;2023-04-27T02:50:07;100503.72;;;8.36;100.00
48624;BME280;34422;45.802;16.114;2023-04-27T02:52:34;100497.41;;;8.29;100.00
48624;BME280;34422;45.802;16.114;2023-04-27T02:55:01;100515.25;;;8.30;100.00
48624;BME280;34422;45.802;16.114;2023-04-27T02:57:27;100507.88;;;8.17;100.00
48624;BME280;34422;45.802;16.114;2023-04-27T02:59:54;100514.19;;;8.09;100.00
48624;BME280;34422;45.802;16.114;2023-04-27T03:02:21;100516.00;;;8.02;100.00
48624;BME280;34422;45.802;16.114;2023-04-27T03:04:51;100512.38;;;7.95;100.00
48624;BME280;34422;45.802;16.114;2023-04-27T03:07:20;100510.56;;;7.81;100.00
48624;BME280;34422;45.802;16.114;2023-04-27T03:09:47;100527.56;;;7.81;100.00
48624;BME280;34422;45.802;16.114;2023-04-27T03:12:14;100523.78;;;7.76;100.00
48624;BME280;34422;45.802;16.114;2023-04-27T03:14:40;100543.72;;;7.81;100.00
48624;BME280;34422;45.802;16.114;2023-04-27T03:17:07;100542.78;;;7.89;100.00
48624;BME280;34422;45.802;16.114;2023-04-27T03:19:34;100523.78;;;7.76;100.00
48624;BME280;34422;45.802;16.114;2023-04-27T03:22:00;100547.59;;;7.94;100.00
48624;BME280;34422;45.802;16.114;2023-04-27T03:24:27;100542.41;;;7.92;100.00
48624;BME280;34422;45.802;16.114;2023-04-27T03:26:54;100543.44;;;7.91;100.00
48624;BME280;34422;45.802;16.114;2023-04-27T03:29:21;100549.00;;;8.04;100.00
48624;BME280;34422;45.802;16.114;2023-04-27T03:31:48;100550.75;;;7.97;100.00
48624;BME280;34422;45.802;16.114;2023-04-27T03:34:15;100547.69;;;8.00;100.00
48624;BME280;34422;45.802;16.114;2023-04-27T03:36:42;100542.03;;;7.95;100.00
48624;BME280;34422;45.802;16.114;2023-04-27T03:39:09;100530.06;;;7.83;100.00
48624;BME280;34422;45.802;16.114;2023-04-27T03:41:35;100542.13;;;7.87;100.00
48624;BME280;34422;45.802;16.114;2023-04-27T03:44:02;100535.94;;;7.72;100.00
48624;BME280;34422;45.802;16.114;2023-04-27T03:46:29;100545.16;;;7.63;100.00
48624;BME280;34422;45.802;16.114;2023-04-27T03:48:56;100545.22;;;7.55;100.00
48624;BME280;34422;45.802;16.114;2023-04-27T03:51:22;100558.44;;;7.49;100.00
48624;BME280;34422;45.802;16.114;2023-04-27T03:53:49;100559.81;;;7.45;100.00
48624;BME280;34422;45.802;16.114;2023-04-27T03:56:16;100536.50;;;7.23;100.00
48624;BME280;34422;45.802;16.114;2023-04-27T03:58:43;100540.88;;;7.24;100.00
48624;BME280;34422;45.802;16.114;2023-04-27T04:01:09;100566.69;;;7.33;100.00
48624;BME280;34422;45.802;16.114;2023-04-27T04:03:36;100565.00;;;7.32;100.00
48624;BME280;34422;45.802;16.114;2023-04-27T04:06:03;100556.19;;;7.24;100.00
48624;BME280;34422;45.802;16.114;2023-04-27T04:08:30;100575.22;;;7.22;100.00
48624;BME280;34422;45.802;16.114;2023-04-27T04:10:59;100568.50;;;7.18;100.00
48624;BME280;34422;45.802;16.114;2023-04-27T04:13:26;100564.69;;;7.12;100.00
48624;BME280;34422;45.802;16.114;2023-04-27T04:16:06;100568.03;;;7.14;100.00
48624;BME280;34422;45.802;16.114;2023-04-27T04:18:35;100560.88;;;7.07;100.00
48624;BME280;34422;45.802;16.114;2023-04-27T04:21:02;100545.19;;;6.96;100.00
48624;BME280;34422;45.802;16.114;2023-04-27T04:23:29;100567.19;;;7.14;100.00
48624;BME280;34422;45.802;16.114;2023-04-27T04:25:55;100574.38;;;7.22;100.00
48624;BME280;34422;45.802;16.114;2023-04-27T04:28:23;100570.19;;;7.19;100.00
48624;BME280;34422;45.802;16.114;2023-04-27T04:30:50;100569.25;;;7.27;100.00
48624;BME280;34422;45.802;16.114;2023-04-27T04:33:17;100570.19;;;7.19;100.00
48624;BME280;34422;45.802;16.114;2023-04-27T04:35:45;100572.88;;;7.19;100.00
48624;BME280;34422;45.802;16.114;2023-04-27T04:38:12;100569.81;;;7.22;100.00
48624;BME280;34422;45.802;16.114;2023-04-27T04:40:40;100581.59;;;7.21;100.00
48624;BME280;34422;45.802;16.114;2023-04-27T04:43:07;100581.88;;;7.26;100.00
48624;BME280;34422;45.802;16.114;2023-04-27T04:45:34;100568.06;;;7.29;100.00
48624;BME280;34422;45.802;16.114;2023-04-27T04:48:01;100579.47;;;7.31;100.00
48624;BME280;34422;45.802;16.114;2023-04-27T04:50:28;100588.56;;;7.30;100.00
48624;BME280;34422;45.802;16.114;2023-04-27T04:52:55;100587.66;;;7.23;100.00
48624;BME280;34422;45.802;16.114;2023-04-27T04:55:21;100594.03;;;7.22;100.00
48624;BME280;34422;45.802;16.114;2023-04-27T04:57:48;100604.50;;;7.17;100.00
48624;BME280;34422;45.802;16.114;2023-04-27T05:00:15;100601.53;;;7.12;100.00
48624;BME280;34422;45.802;16.114;2023-04-27T05:02:42;100607.88;;;7.19;100.00
48624;BME280;34422;45.802;16.114;2023-04-27T05:05:09;100605.56;;;7.31;100.00
48624;BME280;34422;45.802;16.114;2023-04-27T05:07:36;100612.00;;;7.44;100.00
48624;BME280;34422;45.802;16.114;2023-04-27T05:10:03;100603.38;;;7.64;100.00
48624;BME280;34422;45.802;16.114;2023-04-27T05:12:30;100607.63;;;7.88;100.00
48624;BME280;34422;45.802;16.114;2023-04-27T05:14:56;100608.38;;;7.96;100.00
48624;BME280;34422;45.802;16.114;2023-04-27T05:17:24;100606.00;;;8.23;100.00
48624;BME280;34422;45.802;16.114;2023-04-27T05:19:50;100606.66;;;8.39;100.00
48624;BME280;34422;45.802;16.114;2023-04-27T05:22:17;100586.75;;;8.40;100.00
48624;BME280;34422;45.802;16.114;2023-04-27T05:24:44;100611.63;;;8.78;100.00
48624;BME280;34422;45.802;16.114;2023-04-27T05:27:12;100625.91;;;9.15;100.00
48624;BME280;34422;45.802;16.114;2023-04-27T05:29:40;100597.16;;;9.35;100.00
48624;BME280;34422;45.802;16.114;2023-04-27T05:32:06;100621.44;;;9.91;100.00
48624;BME280;34422;45.802;16.114;2023-04-27T05:34:33;100599.47;;;10.07;100.00
48624;BME280;34422;45.802;16.114;2023-04-27T05:37:00;100624.88;;;10.60;100.00
48624;BME280;34422;45.802;16.114;2023-04-27T05:39:27;100634.53;;;10.96;98.43
48624;BME280;34422;45.802;16.114;2023-04-27T05:41:54;100635.81;;;11.33;90.78
48624;BME280;34422;45.802;16.114;2023-04-27T05:44:20;100628.69;;;11.78;84.38
48624;BME280;34422;45.802;16.114;2023-04-27T05:46:47;100632.75;;;12.20;78.19
48624;BME280;34422;45.802;16.114;2023-04-27T05:49:14;100630.88;;;12.27;71.54
48624;BME280;34422;45.802;16.114;2023-04-27T05:51:41;100633.88;;;12.57;70.94
48624;BME280;34422;45.802;16.114;2023-04-27T05:54:08;100628.88;;;12.86;71.54
48624;BME280;34422;45.802;16.114;2023-04-27T05:56:35;100633.94;;;13.63;65.17
48624;BME280;34422;45.802;16.114;2023-04-27T05:59:03;100632.66;;;13.41;62.08
48624;BME280;34422;45.802;16.114;2023-04-27T06:01:30;100639.88;;;13.97;60.29
48624;BME280;34422;45.802;16.114;2023-04-27T06:03:57;100630.97;;;14.08;57.50
48624;BME280;34422;45.802;16.114;2023-04-27T06:06:26;100640.66;;;14.04;55.83
48624;BME280;34422;45.802;16.114;2023-04-27T06:08:57;100646.97;;;14.71;52.80
48624;BME280;34422;45.802;16.114;2023-04-27T06:11:24;100645.75;;;14.67;52.43
48624;BME280;34422;45.802;16.114;2023-04-27T06:13:50;100649.06;;;15.28;49.96
48624;BME280;34422;45.802;16.114;2023-04-27T06:16:17;100655.13;;;14.89;50.07
48624;BME280;34422;45.802;16.114;2023-04-27T06:18:44;100640.06;;;14.20;55.15
48624;BME280;34422;45.802;16.114;2023-04-27T06:21:11;100659.50;;;13.80;55.37
48624;BME280;34422;45.802;16.114;2023-04-27T06:23:37;100657.41;;;13.58;56.71
48624;BME280;34422;45.802;16.114;2023-04-27T06:26:04;100653.00;;;13.38;56.79
48624;BME280;34422;45.802;16.114;2023-04-27T06:28:31;100647.25;;;13.71;55.94
48624;BME280;34422;45.802;16.114;2023-04-27T06:30:58;100644.59;;;13.40;56.92
48624;BME280;34422;45.802;16.114;2023-04-27T06:33:25;100660.22;;;13.69;57.06
48624;BME280;34422;45.802;16.114;2023-04-27T06:35:52;100651.00;;;13.52;56.83
48624;BME280;34422;45.802;16.114;2023-04-27T06:38:18;100667.16;;;13.90;56.49
48624;BME280;34422;45.802;16.114;2023-04-27T06:40:49;100658.13;;;13.71;57.33
48624;BME280;34422;45.802;16.114;2023-04-27T06:43:16;100665.09;;;13.85;56.73
48624;BME280;34422;45.802;16.114;2023-04-27T06:45:43;100656.06;;;14.10;55.35
48624;BME280;34422;45.802;16.114;2023-04-27T06:48:10;100667.06;;;14.40;52.84
48624;BME280;34422;45.802;16.114;2023-04-27T06:50:36;100665.34;;;14.39;52.53
48624;BME280;34422;45.802;16.114;2023-04-27T06:53:03;100648.97;;;13.91;51.75
48624;BME280;34422;45.802;16.114;2023-04-27T06:55:30;100671.09;;;14.12;54.16
48624;BME280;34422;45.802;16.114;2023-04-27T06:57:57;100672.66;;;14.45;52.01
48624;BME280;34422;45.802;16.114;2023-04-27T07:00:23;100674.28;;;14.28;46.44
48624;BME280;34422;45.802;16.114;2023-04-27T07:02:50;100676.88;;;14.59;46.22
48624;BME280;34422;45.802;16.114;2023-04-27T07:05:17;100663.69;;;14.38;51.02
48624;BME280;34422;45.802;16.114;2023-04-27T07:07:44;100675.00;;;14.60;52.75
48624;BME280;34422;45.802;16.114;2023-04-27T07:10:11;100671.13;;;14.97;53.09
48624;BME280;34422;45.802;16.114;2023-04-27T07:12:38;100665.19;;;14.88;46.42
48624;BME280;34422;45.802;16.114;2023-04-27T07:15:06;100669.97;;;14.75;44.96
48624;BME280;34422;45.802;16.114;2023-04-27T07:17:33;100669.94;;;15.05;43.99
48624;BME280;34422;45.802;16.114;2023-04-27T07:20:00;100672.97;;;15.56;41.90
48624;BME280;34422;45.802;16.114;2023-04-27T07:22:29;100680.81;;;16.11;39.24
48624;BME280;34422;45.802;16.114;2023-04-27T07:24:56;100671.69;;;15.82;40.91
48624;BME280;34422;45.802;16.114;2023-04-27T07:27:22;100678.00;;;16.46;39.42
48624;BME280;34422;45.802;16.114;2023-04-27T07:29:50;100671.25;;;16.89;39.56
48624;BME280;34422;45.802;16.114;2023-04-27T07:32:16;100674.22;;;17.32;39.32
48624;BME280;34422;45.802;16.114;2023-04-27T07:34:43;100673.56;;;17.92;40.82
48624;BME280;34422;45.802;16.114;2023-04-27T07:37:10;100680.03;;;17.53;38.59
48624;BME280;34422;45.802;16.114;2023-04-27T07:39:36;100676.47;;;17.52;40.74
48624;BME280;34422;45.802;16.114;2023-04-27T07:42:03;100673.94;;;16.60;39.92
48624;BME280;34422;45.802;16.114;2023-04-27T07:44:30;100678.00;;;16.46;40.06
48624;BME280;34422;45.802;16.114;2023-04-27T07:46:58;100680.88;;;16.28;40.54
48624;BME280;34422;45.802;16.114;2023-04-27T07:49:25;100673.25;;;16.53;40.41
48624;BME280;34422;45.802;16.114;2023-04-27T07:51:52;100669.19;;;17.41;39.47
48624;BME280;34422;45.802;16.114;2023-04-27T07:54:18;100666.38;;;17.69;39.88
48624;BME280;34422;45.802;16.114;2023-04-27T07:56:45;100673.50;;;18.64;37.08
48624;BME280;34422;45.802;16.114;2023-04-27T07:59:12;100663.06;;;18.23;35.80
48624;BME280;34422;45.802;16.114;2023-04-27T08:01:40;100662.34;;;19.51;36.56
48624;BME280;34422;45.802;16.114;2023-04-27T08:04:07;100670.94;;;19.33;34.92
48624;BME280;34422;45.802;16.114;2023-04-27T08:06:34;100672.59;;;20.03;34.31
48624;BME280;34422;45.802;16.114;2023-04-27T08:09:01;100676.31;;;20.91;33.44
48624;BME280;34422;45.802;16.114;2023-04-27T08:11:29;100665.50;;;19.38;35.29
48624;BME280;34422;45.802;16.114;2023-04-27T08:13:56;100666.25;;;19.61;34.15
48624;BME280;34422;45.802;16.114;2023-04-27T08:16:23;100669.91;;;20.08;32.30
48624;BME280;34422;45.802;16.114;2023-04-27T08:18:49;100670.16;;;20.49;32.17
48624;BME280;34422;45.802;16.114;2023-04-27T08:21:16;100664.31;;;21.48;29.12
48624;BME280;34422;45.802;16.114;2023-04-27T08:23:43;100673.06;;;20.32;32.24
48624;BME280;34422;45.802;16.114;2023-04-27T08:26:14;100663.44;;;19.24;33.73
48624;BME280;34422;45.802;16.114;2023-04-27T08:28:41;100667.38;;;20.02;32.82
48624;BME280;34422;45.802;16.114;2023-04-27T08:31:08;100667.50;;;19.80;33.14
48624;BME280;34422;45.802;16.114;2023-04-27T08:33:35;100663.13;;;19.79;32.09
48624;BME280;34422;45.802;16.114;2023-04-27T08:36:01;100656.63;;;19.26;33.00
48624;BME280;34422;45.802;16.114;2023-04-27T08:38:28;100663.94;;;20.27;33.11
48624;BME280;34422;45.802;16.114;2023-04-27T08:40:55;100652.34;;;19.40;32.78
48624;BME280;34422;45.802;16.114;2023-04-27T08:43:22;100663.06;;;20.63;32.70
48624;BME280;34422;45.802;16.114;2023-04-27T08:45:49;100669.81;;;19.93;32.03
48624;BME280;34422;45.802;16.114;2023-04-27T08:48:16;100665.88;;;19.84;32.46
48624;BME280;34422;45.802;16.114;2023-04-27T08:50:43;100664.28;;;19.56;34.21
48624;BME280;34422;45.802;16.114;2023-04-27T08:53:20;100674.69;;;20.90;31.25
48624;BME280;34422;45.802;16.114;2023-04-27T08:55:50;100672.19;;;20.27;31.09
48624;BME280;34422;45.802;16.114;2023-04-27T08:58:17;100663.78;;;19.32;32.47
48624;BME280;34422;45.802;16.114;2023-04-27T09:00:44;100662.66;;;19.92;30.84
48624;BME280;34422;45.802;16.114;2023-04-27T09:03:21;100662.44;;;19.62;31.34
48624;BME280;34422;45.802;16.114;2023-04-27T09:05:48;100662.81;;;20.17;30.58
48624;BME280;34422;45.802;16.114;2023-04-27T09:08:15;100657.47;;;20.01;30.85
48624;BME280;34422;45.802;16.114;2023-04-27T09:10:47;100663.78;;;20.43;30.74
48624;BME280;34422;45.802;16.114;2023-04-27T09:13:14;100660.06;;;18.90;30.92
48624;BME280;34422;45.802;16.114;2023-04-27T09:15:42;100660.38;;;19.20;32.61
48624;BME280;34422;45.802;16.114;2023-04-27T09:18:16;100672.13;;;18.06;32.69
48624;BME280;34422;45.802;16.114;2023-04-27T09:20:50;100671.34;;;16.65;35.88
48624;BME280;34422;45.802;16.114;2023-04-27T09:23:31;100662.91;;;17.74;35.61
48624;BME280;34422;45.802;16.114;2023-04-27T09:26:00;100672.94;;;17.85;34.54
48624;BME280;34422;45.802;16.114;2023-04-27T09:28:29;100666.81;;;17.16;35.62
48624;BME280;34422;45.802;16.114;2023-04-27T09:31:00;100666.97;;;17.88;35.69
48624;BME280;34422;45.802;16.114;2023-04-27T09:33:29;100658.50;;;18.28;32.70
48624;BME280;34422;45.802;16.114;2023-04-27T09:35:58;100647.81;;;17.88;35.43
48624;BME280;34422;45.802;16.114;2023-04-27T09:38:26;100661.91;;;17.47;36.24
48624;BME280;34422;45.802;16.114;2023-04-27T09:40:54;100666.53;;;18.57;33.43
48624;BME280;34422;45.802;16.114;2023-04-27T09:43:22;100653.69;;;18.19;34.11
48624;BME280;34422;45.802;16.114;2023-04-27T09:45:50;100647.97;;;18.42;34.64
48624;BME280;34422;45.802;16.114;2023-04-27T09:48:17;100650.19;;;18.23;35.99
48624;BME280;34422;45.802;16.114;2023-04-27T09:50:44;100657.91;;;17.88;34.54
48624;BME280;34422;45.802;16.114;2023-04-27T09:53:14;100647.28;;;17.91;35.56
48624;BME280;34422;45.802;16.114;2023-04-27T09:58:30;100644.34;;;17.76;35.20
48624;BME280;34422;45.802;16.114;2023-04-27T10:03:54;100634.22;;;17.77;34.79
48624;BME280;34422;45.802;16.114;2023-04-27T10:09:27;100636.41;;;18.18;36.78
48624;BME280;34422;45.802;16.114;2023-04-27T10:12:31;100615.06;;;18.86;33.69
48624;BME280;34422;45.802;16.114;2023-04-27T10:14:59;100615.16;;;18.25;38.08
48624;BME280;34422;45.802;16.114;2023-04-27T10:17:36;100616.19;;;18.63;36.92
48624;BME280;34422;45.802;16.114;2023-04-27T10:20:05;100617.38;;;18.06;37.79
48624;BME280;34422;45.802;16.114;2023-04-27T10:22:40;100620.28;;;18.17;36.12
48624;BME280;34422;45.802;16.114;2023-04-27T10:25:19;100604.78;;;17.33;36.09
48624;BME280;34422;45.802;16.114;2023-04-27T10:27:51;100613.63;;;17.57;36.87
48624;BME280;34422;45.802;16.114;2023-04-27T10:30:21;100601.78;;;18.07;38.93
48624;BME280;34422;45.802;16.114;2023-04-27T10:32:55;100609.75;;;18.08;38.07
48624;BME280;34422;45.802;16.114;2023-04-27T10:35:40;100605.66;;;17.56;36.74
48624;BME280;34422;45.802;16.114;2023-04-27T10:38:15;100597.03;;;17.81;37.65
48624;BME280;34422;45.802;16.114;2023-04-27T10:40:43;100602.53;;;17.64;37.38
48624;BME280;34422;45.802;16.114;2023-04-27T10:43:12;100597.53;;;17.61;37.40
48624;BME280;34422;45.802;16.114;2023-04-27T10:45:40;100587.94;;;17.75;36.31
48624;BME280;34422;45.802;16.114;2023-04-27T10:48:08;100586.13;;;17.14;38.08
48624;BME280;34422;45.802;16.114;2023-04-27T10:50:34;100574.50;;;16.90;39.29
48624;BME280;34422;45.802;16.114;2023-04-27T10:53:04;100571.38;;;17.31;37.56
48624;BME280;34422;45.802;16.114;2023-04-27T10:55:32;100588.59;;;17.49;38.11
48624;BME280;34422;45.802;16.114;2023-04-27T10:58:00;100583.97;;;17.32;38.28
48624;BME280;34422;45.802;16.114;2023-04-27T11:00:47;100583.88;;;17.61;39.02
48624;BME280;34422;45.802;16.114;2023-04-27T11:03:17;100583.22;;;17.92;38.01
48624;BME280;34422;45.802;16.114;2023-04-27T11:05:45;100579.66;;;17.70;37.08
48624;BME280;34422;45.802;16.114;2023-04-27T11:08:15;100576.50;;;16.94;37.52
48624;BME280;34422;45.802;16.114;2023-04-27T11:10:46;100576.69;;;17.21;37.81
48624;BME280;34422;45.802;16.114;2023-04-27T11:13:20;100568.69;;;17.70;37.77
48624;BME280;34422;45.802;16.114;2023-04-27T11:15:55;100582.78;;;17.12;37.63
48624;BME280;34422;45.802;16.114;2023-04-27T11:18:30;100570.38;;;17.04;39.13
48624;BME280;34422;45.802;16.114;2023-04-27T11:21:13;100575.78;;;16.70;39.32
48624;BME280;34422;45.802;16.114;2023-04-27T11:23:41;100577.91;;;16.97;38.90
48624;BME280;34422;45.802;16.114;2023-04-27T11:26:12;100575.19;;;17.14;38.79
48624;BME280;34422;45.802;16.114;2023-04-27T11:28:57;100582.38;;;17.53;38.37
48624;BME280;34422;45.802;16.114;2023-04-27T11:31:25;100581.63;;;17.58;37.71
48624;BME280;34422;45.802;16.114;2023-04-27T11:33:53;100571.44;;;17.36;37.25
48624;BME280;34422;45.802;16.114;2023-04-27T11:36:22;100574.00;;;17.26;38.35
48624;BME280;34422;45.802;16.114;2023-04-27T11:38:48;100567.72;;;17.26;37.45
48624;BME280;34422;45.802;16.114;2023-04-27T11:41:15;100571.16;;;17.55;38.38
48624;BME280;34422;45.802;16.114;2023-04-27T11:43:43;100570.84;;;17.51;37.34
48624;BME280;34422;45.802;16.114;2023-04-27T11:46:14;100574.50;;;17.23;38.27
48624;BME280;34422;45.802;16.114;2023-04-27T11:48:41;100566.88;;;17.75;37.22
48624;BME280;34422;45.802;16.114;2023-04-27T11:51:09;100569.03;;;17.23;37.12
48624;BME280;34422;45.802;16.114;2023-04-27T11:53:38;100558.91;;;17.74;39.00
48624;BME280;34422;45.802;16.114;2023-04-27T11:56:06;100556.44;;;16.89;38.88
48624;BME280;34422;45.802;16.114;2023-04-27T11:58:34;100554.94;;;16.98;38.34
48624;BME280;34422;45.802;16.114;2023-04-27T12:01:03;100560.06;;;17.61;38.77
48624;BME280;34422;45.802;16.114;2023-04-27T12:03:30;100560.91;;;17.62;37.96
48624;BME280;34422;45.802;16.114;2023-04-27T12:05:58;100554.44;;;17.68;37.71
48624;BME280;34422;45.802;16.114;2023-04-27T12:08:24;100551.69;;;17.51;39.51
48624;BME280;34422;45.802;16.114;2023-04-27T12:10:51;100564.06;;;17.70;39.20
48624;BME280;34422;45.802;16.114;2023-04-27T12:13:18;100562.63;;;17.68;37.68
48624;BME280;34422;45.802;16.114;2023-04-27T12:15:45;100553.69;;;17.94;38.39
48624;BME280;34422;45.802;16.114;2023-04-27T12:18:12;100552.19;;;17.65;37.63
48624;BME280;34422;45.802;16.114;2023-04-27T12:20:39;100543.25;;;17.91;38.63
48624;BME280;34422;45.802;16.114;2023-04-27T12:23:06;100537.13;;;18.28;39.51
48624;BME280;34422;45.802;16.114;2023-04-27T12:25:32;100545.16;;;18.13;38.28
48624;BME280;34422;45.802;16.114;2023-04-27T12:27:59;100554.06;;;17.81;36.57
48624;BME280;34422;45.802;16.114;2023-04-27T12:30:26;100534.69;;;17.66;37.71
48624;BME280;34422;45.802;16.114;2023-04-27T12:32:52;100542.50;;;17.74;37.46
48624;BME280;34422;45.802;16.114;2023-04-27T12:35:19;100542.69;;;17.89;37.24
48624;BME280;34422;45.802;16.114;2023-04-27T12:37:46;100532.38;;;17.96;37.63
48624;BME280;34422;45.802;16.114;2023-04-27T12:40:13;100530.09;;;18.37;38.59
48624;BME280;34422;45.802;16.114;2023-04-27T12:42:40;100530.19;;;17.98;38.08
48624;BME280;34422;45.802;16.114;2023-04-27T12:45:07;100529.50;;;17.86;40.08
48624;BME280;34422;45.802;16.114;2023-04-27T12:47:34;100524.25;;;18.06;39.73
48624;BME280;34422;45.802;16.114;2023-04-27T12:50:01;100531.16;;;18.31;38.05
48624;BME280;34422;45.802;16.114;2023-04-27T12:52:28;100538.91;;;17.95;38.85